sensor_id;sensor_type;location;lat;lon;timestamp;temperature;humidity
41644;DHT22;44236;48.098;11.582;2022-07-25T00:00:31;29.00;44.80
41644;DHT22;44236;48.098;11.582;2022-07-25T00:02:57;29.00;44.30
41644;DHT22;44236;48.098;11.582;2022-07-25T00:05:23;29.00;44.40
41644;DHT22;44236;48.098;11.582;2022-07-25T00:07:49;28.90;44.40
41644;DHT22;44236;48.098;11.582;2022-07-25T00:10:15;28.90;44.40
41644;DHT22;44236;48.098;11.582;2022-07-25T00:12:41;28.90;44.50
41644;DHT22;44236;48.098;11.582;2022-07-25T00:15:07;28.90;44.50
41644;DHT22;44236;48.098;11.582;2022-07-25T00:17:33;28.90;44.60
41644;DHT22;44236;48.098;11.582;2022-07-25T00:19:59;28.80;44.50
41644;DHT22;44236;48.098;11.582;2022-07-25T00:22:25;28.80;44.50
41644;DHT22;44236;48.098;11.582;2022-07-25T00:24:50;28.80;44.50
41644;DHT22;44236;48.098;11.582;2022-07-25T00:27:16;28.70;44.60
41644;DHT22;44236;48.098;11.582;2022-07-25T00:29:42;28.70;44.60
41644;DHT22;44236;48.098;11.582;2022-07-25T00:32:07;28.70;44.60
41644;DHT22;44236;48.098;11.582;2022-07-25T00:34:33;28.70;44.70
41644;DHT22;44236;48.098;11.582;2022-07-25T00:36:59;28.60;44.60
41644;DHT22;44236;48.098;11.582;2022-07-25T00:39:24;28.60;44.70
41644;DHT22;44236;48.098;11.582;2022-07-25T00:41:50;28.60;44.70
41644;DHT22;44236;48.098;11.582;2022-07-25T00:44:42;28.60;44.80
41644;DHT22;44236;48.098;11.582;2022-07-25T00:47:08;28.60;44.80
41644;DHT22;44236;48.098;11.582;2022-07-25T00:49:33;28.50;44.80
41644;DHT22;44236;48.098;11.582;2022-07-25T00:51:59;28.50;44.80
41644;DHT22;44236;48.098;11.582;2022-07-25T00:54:25;28.50;44.90
41644;DHT22;44236;48.098;11.582;2022-07-25T00:56:51;28.50;44.90
41644;DHT22;44236;48.098;11.582;2022-07-25T00:59:17;28.50;44.90
41644;DHT22;44236;48.098;11.582;2022-07-25T01:01:43;28.40;44.90
41644;DHT22;44236;48.098;11.582;2022-07-25T01:04:12;28.40;45.00
41644;DHT22;44236;48.098;11.582;2022-07-25T01:06:38;28.40;45.00
41644;DHT22;44236;48.098;11.582;2022-07-25T01:09:04;28.40;45.10
41644;DHT22;44236;48.098;11.582;2022-07-25T01:11:29;28.30;45.10
41644;DHT22;44236;48.098;11.582;2022-07-25T01:13:55;28.30;45.10
41644;DHT22;44236;48.098;11.582;2022-07-25T01:16:21;28.30;45.20
41644;DHT22;44236;48.098;11.582;2022-07-25T01:18:46;28.30;45.20
41644;DHT22;44236;48.098;11.582;2022-07-25T01:21:12;28.20;45.20
41644;DHT22;44236;48.098;11.582;2022-07-25T01:23:39;28.20;45.20
41644;DHT22;44236;48.098;11.582;2022-07-25T01:26:05;28.20;45.20
41644;DHT22;44236;48.098;11.582;2022-07-25T01:28:30;28.20;45.30
41644;DHT22;44236;48.098;11.582;2022-07-25T01:30:56;28.20;45.30
41644;DHT22;44236;48.098;11.582;2022-07-25T01:33:22;28.20;45.40
41644;DHT22;44236;48.098;11.582;2022-07-25T01:35:48;28.10;45.30
41644;DHT22;44236;48.098;11.582;2022-07-25T01:38:15;28.10;45.40
41644;DHT22;44236;48.098;11.582;2022-07-25T01:40:42;28.10;45.50
41644;DHT22;44236;48.098;11.582;2022-07-25T01:43:08;28.10;45.60
41644;DHT22;44236;48.098;11.582;2022-07-25T01:45:34;28.00;45.60
41644;DHT22;44236;48.098;11.582;2022-07-25T01:48:00;28.00;45.70
41644;DHT22;44236;48.098;11.582;2022-07-25T01:50:25;28.00;45.70
41644;DHT22;44236;48.098;11.582;2022-07-25T01:52:51;28.00;45.80
41644;DHT22;44236;48.098;11.582;2022-07-25T01:55:17;28.00;45.80
41644;DHT22;44236;48.098;11.582;2022-07-25T01:57:42;28.00;45.90
41644;DHT22;44236;48.098;11.582;2022-07-25T02:00:10;27.90;45.80
41644;DHT22;44236;48.098;11.582;2022-07-25T02:02:39;27.90;45.90
41644;DHT22;44236;48.098;11.582;2022-07-25T02:05:05;27.90;45.90
41644;DHT22;44236;48.098;11.582;2022-07-25T02:07:31;27.90;46.00
41644;DHT22;44236;48.098;11.582;2022-07-25T02:09:56;27.80;45.90
41644;DHT22;44236;48.098;11.582;2022-07-25T02:12:22;27.80;45.90
41644;DHT22;44236;48.098;11.582;2022-07-25T02:14:48;27.80;46.00
41644;DHT22;44236;48.098;11.582;2022-07-25T02:17:13;27.80;46.00
41644;DHT22;44236;48.098;11.582;2022-07-25T02:19:39;27.80;46.00
41644;DHT22;44236;48.098;11.582;2022-07-25T02:22:05;27.80;46.10
41644;DHT22;44236;48.098;11.582;2022-07-25T02:24:31;27.70;46.00
41644;DHT22;44236;48.098;11.582;2022-07-25T02:26:57;27.70;46.10
41644;DHT22;44236;48.098;11.582;2022-07-25T02:29:22;27.70;46.20
41644;DHT22;44236;48.098;11.582;2022-07-25T02:31:48;27.60;46.10
41644;DHT22;44236;48.098;11.582;2022-07-25T02:34:16;27.60;46.20
41644;DHT22;44236;48.098;11.582;2022-07-25T02:36:42;27.60;46.20
41644;DHT22;44236;48.098;11.582;2022-07-25T02:39:07;27.60;46.30
41644;DHT22;44236;48.098;11.582;2022-07-25T02:41:33;27.50;46.20
41644;DHT22;44236;48.098;11.582;2022-07-25T02:43:58;27.50;46.30
41644;DHT22;44236;48.098;11.582;2022-07-25T02:46:24;27.50;46.40
41644;DHT22;44236;48.098;11.582;2022-07-25T02:48:50;27.50;46.40
41644;DHT22;44236;48.098;11.582;2022-07-25T02:51:15;27.40;46.40
41644;DHT22;44236;48.098;11.582;2022-07-25T02:53:43;27.40;46.50
41644;DHT22;44236;48.098;11.582;2022-07-25T02:56:08;27.40;46.60
41644;DHT22;44236;48.098;11.582;2022-07-25T02:58:34;27.40;46.60
41644;DHT22;44236;48.098;11.582;2022-07-25T03:00:59;27.40;46.70
41644;DHT22;44236;48.098;11.582;2022-07-25T03:03:25;27.30;46.60
41644;DHT22;44236;48.098;11.582;2022-07-25T03:05:51;27.30;46.70
41644;DHT22;44236;48.098;11.582;2022-07-25T03:08:16;27.30;46.70
41644;DHT22;44236;48.098;11.582;2022-07-25T03:10:42;27.30;46.80
41644;DHT22;44236;48.098;11.582;2022-07-25T03:13:08;27.20;46.80
41644;DHT22;44236;48.098;11.582;2022-07-25T03:15:33;27.20;46.90
41644;DHT22;44236;48.098;11.582;2022-07-25T03:17:59;27.20;46.90
41644;DHT22;44236;48.098;11.582;2022-07-25T03:20:25;27.20;47.00
41644;DHT22;44236;48.098;11.582;2022-07-25T03:22:50;27.20;47.00
41644;DHT22;44236;48.098;11.582;2022-07-25T03:25:16;27.20;47.00
41644;DHT22;44236;48.098;11.582;2022-07-25T03:27:42;27.20;46.90
41644;DHT22;44236;48.098;11.582;2022-07-25T03:30:08;27.10;46.80
41644;DHT22;44236;48.098;11.582;2022-07-25T03:32:33;27.10;46.90
41644;DHT22;44236;48.098;11.582;2022-07-25T03:34:59;27.10;46.90
41644;DHT22;44236;48.098;11.582;2022-07-25T03:37:25;27.10;46.90
41644;DHT22;44236;48.098;11.582;2022-07-25T03:39:50;27.00;46.90
41644;DHT22;44236;48.098;11.582;2022-07-25T03:42:16;27.00;47.00
41644;DHT22;44236;48.098;11.582;2022-07-25T03:44:41;27.00;47.00
41644;DHT22;44236;48.098;11.582;2022-07-25T03:47:07;27.00;47.00
41644;DHT22;44236;48.098;11.582;2022-07-25T03:49:33;27.00;46.90
41644;DHT22;44236;48.098;11.582;2022-07-25T03:51:59;26.90;46.80
41644;DHT22;44236;48.098;11.582;2022-07-25T03:54:25;26.90;46.80
41644;DHT22;44236;48.098;11.582;2022-07-25T03:56:50;26.90;46.80
41644;DHT22;44236;48.098;11.582;2022-07-25T03:59:18;26.90;46.90
41644;DHT22;44236;48.098;11.582;2022-07-25T04:01:45;26.90;46.90
41644;DHT22;44236;48.098;11.582;2022-07-25T04:04:11;26.80;46.80
41644;DHT22;44236;48.098;11.582;2022-07-25T04:06:38;26.80;47.00
41644;DHT22;44236;48.098;11.582;2022-07-25T04:09:04;26.80;47.00
41644;DHT22;44236;48.098;11.582;2022-07-25T04:11:29;26.80;47.10
41644;DHT22;44236;48.098;11.582;2022-07-25T04:13:56;26.80;47.20
41644;DHT22;44236;48.098;11.582;2022-07-25T04:16:22;26.70;47.30
41644;DHT22;44236;48.098;11.582;2022-07-25T04:18:48;26.80;47.40
41644;DHT22;44236;48.098;11.582;2022-07-25T04:21:13;26.70;47.40
41644;DHT22;44236;48.098;11.582;2022-07-25T04:23:39;26.70;47.50
41644;DHT22;44236;48.098;11.582;2022-07-25T04:26:05;26.70;47.60
41644;DHT22;44236;48.098;11.582;2022-07-25T04:28:31;26.70;47.70
41644;DHT22;44236;48.098;11.582;2022-07-25T04:30:57;26.70;47.70
41644;DHT22;44236;48.098;11.582;2022-07-25T04:33:23;26.60;47.70
41644;DHT22;44236;48.098;11.582;2022-07-25T04:35:48;26.60;47.80
41644;DHT22;44236;48.098;11.582;2022-07-25T04:38:15;26.60;47.90
41644;DHT22;44236;48.098;11.582;2022-07-25T04:40:41;26.60;48.00
41644;DHT22;44236;48.098;11.582;2022-07-25T04:43:06;26.60;48.00
41644;DHT22;44236;48.098;11.582;2022-07-25T04:45:33;26.60;48.10
41644;DHT22;44236;48.098;11.582;2022-07-25T04:47:59;26.60;48.10
41644;DHT22;44236;48.098;11.582;2022-07-25T04:50:25;26.60;48.70
41644;DHT22;44236;48.098;11.582;2022-07-25T04:52:51;26.60;48.20
41644;DHT22;44236;48.098;11.582;2022-07-25T04:55:17;26.60;48.30
41644;DHT22;44236;48.098;11.582;2022-07-25T04:57:42;26.60;48.30
41644;DHT22;44236;48.098;11.582;2022-07-25T05:00:10;26.60;48.40
41644;DHT22;44236;48.098;11.582;2022-07-25T05:02:36;26.60;48.40
41644;DHT22;44236;48.098;11.582;2022-07-25T05:05:02;26.60;48.50
41644;DHT22;44236;48.098;11.582;2022-07-25T05:07:28;26.60;48.60
41644;DHT22;44236;48.098;11.582;2022-07-25T05:09:53;26.60;48.70
41644;DHT22;44236;48.098;11.582;2022-07-25T05:12:19;26.60;48.90
41644;DHT22;44236;48.098;11.582;2022-07-25T05:14:45;26.60;49.00
41644;DHT22;44236;48.098;11.582;2022-07-25T05:17:11;26.60;49.10
41644;DHT22;44236;48.098;11.582;2022-07-25T05:19:36;26.60;49.20
41644;DHT22;44236;48.098;11.582;2022-07-25T05:22:03;26.60;49.20
41644;DHT22;44236;48.098;11.582;2022-07-25T05:24:35;26.50;49.00
41644;DHT22;44236;48.098;11.582;2022-07-25T05:27:02;26.50;49.20
41644;DHT22;44236;48.098;11.582;2022-07-25T05:29:28;26.50;49.30
41644;DHT22;44236;48.098;11.582;2022-07-25T05:31:53;26.50;49.40
41644;DHT22;44236;48.098;11.582;2022-07-25T05:34:19;26.60;49.60
41644;DHT22;44236;48.098;11.582;2022-07-25T05:36:45;26.50;49.70
41644;DHT22;44236;48.098;11.582;2022-07-25T05:39:11;26.50;49.90
41644;DHT22;44236;48.098;11.582;2022-07-25T05:41:36;26.50;49.90
41644;DHT22;44236;48.098;11.582;2022-07-25T05:44:02;26.60;50.10
41644;DHT22;44236;48.098;11.582;2022-07-25T05:46:28;26.60;50.80
41644;DHT22;44236;48.098;11.582;2022-07-25T05:48:53;26.60;50.80
41644;DHT22;44236;48.098;11.582;2022-07-25T05:51:19;26.60;50.90
41644;DHT22;44236;48.098;11.582;2022-07-25T05:53:44;26.60;50.90
41644;DHT22;44236;48.098;11.582;2022-07-25T05:56:10;26.60;50.90
41644;DHT22;44236;48.098;11.582;2022-07-25T05:58:36;26.60;50.90
41644;DHT22;44236;48.098;11.582;2022-07-25T06:01:14;26.60;50.80
41644;DHT22;44236;48.098;11.582;2022-07-25T06:03:41;26.60;50.90
41644;DHT22;44236;48.098;11.582;2022-07-25T06:06:07;26.60;50.80
41644;DHT22;44236;48.098;11.582;2022-07-25T06:08:36;26.70;51.00
41644;DHT22;44236;48.098;11.582;2022-07-25T06:11:03;26.70;50.90
41644;DHT22;44236;48.098;11.582;2022-07-25T06:13:30;26.70;50.80
41644;DHT22;44236;48.098;11.582;2022-07-25T06:15:56;26.70;50.70
41644;DHT22;44236;48.098;11.582;2022-07-25T06:18:22;26.80;50.60
41644;DHT22;44236;48.098;11.582;2022-07-25T06:20:48;26.80;50.50
41644;DHT22;44236;48.098;11.582;2022-07-25T06:23:15;26.80;50.30
41644;DHT22;44236;48.098;11.582;2022-07-25T06:25:40;26.90;50.30
41644;DHT22;44236;48.098;11.582;2022-07-25T06:28:06;27.00;50.30
41644;DHT22;44236;48.098;11.582;2022-07-25T06:30:32;27.00;50.20
41644;DHT22;44236;48.098;11.582;2022-07-25T06:32:57;27.10;50.10
41644;DHT22;44236;48.098;11.582;2022-07-25T06:35:23;27.10;50.00
41644;DHT22;44236;48.098;11.582;2022-07-25T06:37:49;27.20;50.10
41644;DHT22;44236;48.098;11.582;2022-07-25T06:40:15;27.20;50.10
41644;DHT22;44236;48.098;11.582;2022-07-25T06:42:45;27.30;49.90
41644;DHT22;44236;48.098;11.582;2022-07-25T06:45:12;27.30;50.40
41644;DHT22;44236;48.098;11.582;2022-07-25T06:47:39;27.40;49.80
41644;DHT22;44236;48.098;11.582;2022-07-25T06:50:07;27.50;49.60
41644;DHT22;44236;48.098;11.582;2022-07-25T06:52:33;27.50;49.40
41644;DHT22;44236;48.098;11.582;2022-07-25T06:54:59;27.60;49.30
41644;DHT22;44236;48.098;11.582;2022-07-25T06:57:24;27.60;49.20
41644;DHT22;44236;48.098;11.582;2022-07-25T06:59:51;27.70;49.10
41644;DHT22;44236;48.098;11.582;2022-07-25T07:02:16;27.80;49.00
41644;DHT22;44236;48.098;11.582;2022-07-25T07:04:42;27.80;48.80
41644;DHT22;44236;48.098;11.582;2022-07-25T07:07:08;27.80;48.70
41644;DHT22;44236;48.098;11.582;2022-07-25T07:09:33;27.90;48.60
41644;DHT22;44236;48.098;11.582;2022-07-25T07:11:59;28.00;48.70
41644;DHT22;44236;48.098;11.582;2022-07-25T07:14:24;28.00;48.60
41644;DHT22;44236;48.098;11.582;2022-07-25T07:16:50;28.10;48.70
41644;DHT22;44236;48.098;11.582;2022-07-25T07:19:16;28.10;48.60
41644;DHT22;44236;48.098;11.582;2022-07-25T07:21:42;28.20;48.80
41644;DHT22;44236;48.098;11.582;2022-07-25T07:24:08;28.20;48.70
41644;DHT22;44236;48.098;11.582;2022-07-25T07:26:34;28.30;48.60
41644;DHT22;44236;48.098;11.582;2022-07-25T07:29:00;28.30;48.40
41644;DHT22;44236;48.098;11.582;2022-07-25T07:31:27;28.30;48.20
41644;DHT22;44236;48.098;11.582;2022-07-25T07:33:53;28.40;48.20
41644;DHT22;44236;48.098;11.582;2022-07-25T07:36:19;28.40;48.10
41644;DHT22;44236;48.098;11.582;2022-07-25T07:38:44;28.50;48.10
41644;DHT22;44236;48.098;11.582;2022-07-25T07:41:10;28.50;48.00
41644;DHT22;44236;48.098;11.582;2022-07-25T07:43:35;28.50;47.90
41644;DHT22;44236;48.098;11.582;2022-07-25T07:46:01;28.50;47.90
41644;DHT22;44236;48.098;11.582;2022-07-25T07:48:31;28.50;47.80
41644;DHT22;44236;48.098;11.582;2022-07-25T07:50:57;28.60;47.80
41644;DHT22;44236;48.098;11.582;2022-07-25T07:53:23;28.60;47.70
41644;DHT22;44236;48.098;11.582;2022-07-25T07:56:08;28.70;47.70
41644;DHT22;44236;48.098;11.582;2022-07-25T07:58:34;28.70;47.60
41644;DHT22;44236;48.098;11.582;2022-07-25T08:01:00;28.70;47.60
41644;DHT22;44236;48.098;11.582;2022-07-25T08:03:26;28.70;47.50
41644;DHT22;44236;48.098;11.582;2022-07-25T08:05:52;28.70;47.50
41644;DHT22;44236;48.098;11.582;2022-07-25T08:08:18;28.80;47.50
41644;DHT22;44236;48.098;11.582;2022-07-25T08:10:45;28.80;47.50
41644;DHT22;44236;48.098;11.582;2022-07-25T08:13:25;28.80;47.90
41644;DHT22;44236;48.098;11.582;2022-07-25T08:15:54;28.80;47.40
41644;DHT22;44236;48.098;11.582;2022-07-25T08:18:23;28.90;47.40
41644;DHT22;44236;48.098;11.582;2022-07-25T08:20:49;28.90;47.40
41644;DHT22;44236;48.098;11.582;2022-07-25T08:23:15;28.90;47.40
41644;DHT22;44236;48.098;11.582;2022-07-25T08:25:42;28.90;47.40
41644;DHT22;44236;48.098;11.582;2022-07-25T08:28:08;28.90;47.30
41644;DHT22;44236;48.098;11.582;2022-07-25T08:30:35;28.90;47.30
41644;DHT22;44236;48.098;11.582;2022-07-25T08:33:03;29.00;47.30
41644;DHT22;44236;48.098;11.582;2022-07-25T08:35:30;29.00;47.30
41644;DHT22;44236;48.098;11.582;2022-07-25T08:37:56;29.00;47.30
41644;DHT22;44236;48.098;11.582;2022-07-25T08:40:23;29.00;47.30
41644;DHT22;44236;48.098;11.582;2022-07-25T08:42:50;29.00;47.40
41644;DHT22;44236;48.098;11.582;2022-07-25T08:45:16;29.00;47.30
41644;DHT22;44236;48.098;11.582;2022-07-25T08:47:44;29.00;47.40
41644;DHT22;44236;48.098;11.582;2022-07-25T08:50:12;29.00;47.30
41644;DHT22;44236;48.098;11.582;2022-07-25T08:52:38;29.00;47.30
41644;DHT22;44236;48.098;11.582;2022-07-25T08:55:09;29.10;47.40
41644;DHT22;44236;48.098;11.582;2022-07-25T08:57:36;29.10;47.90
41644;DHT22;44236;48.098;11.582;2022-07-25T09:00:06;29.10;47.30
41644;DHT22;44236;48.098;11.582;2022-07-25T09:02:32;29.10;47.30
41644;DHT22;44236;48.098;11.582;2022-07-25T09:04:58;29.10;47.30
41644;DHT22;44236;48.098;11.582;2022-07-25T09:09:56;29.10;47.30
41644;DHT22;44236;48.098;11.582;2022-07-25T09:12:28;29.10;47.40
41644;DHT22;44236;48.098;11.582;2022-07-25T09:14:54;29.10;47.30
41644;DHT22;44236;48.098;11.582;2022-07-25T09:17:19;29.10;47.30
41644;DHT22;44236;48.098;11.582;2022-07-25T09:19:53;29.10;47.50
41644;DHT22;44236;48.098;11.582;2022-07-25T09:22:19;29.10;47.60
41644;DHT22;44236;48.098;11.582;2022-07-25T09:24:44;29.10;47.60
41644;DHT22;44236;48.098;11.582;2022-07-25T09:27:10;29.10;47.90
41644;DHT22;44236;48.098;11.582;2022-07-25T09:29:38;29.10;48.60
41644;DHT22;44236;48.098;11.582;2022-07-25T09:32:18;29.10;49.80
41644;DHT22;44236;48.098;11.582;2022-07-25T09:34:46;29.10;50.40
41644;DHT22;44236;48.098;11.582;2022-07-25T09:37:15;29.10;50.50
41644;DHT22;44236;48.098;11.582;2022-07-25T09:39:48;29.10;50.10
41644;DHT22;44236;48.098;11.582;2022-07-25T09:42:18;29.10;49.30
41644;DHT22;44236;48.098;11.582;2022-07-25T09:44:55;29.10;48.40
41644;DHT22;44236;48.098;11.582;2022-07-25T09:47:21;29.10;48.70
41644;DHT22;44236;48.098;11.582;2022-07-25T09:49:47;29.10;48.40
41644;DHT22;44236;48.098;11.582;2022-07-25T09:52:13;29.10;48.30
41644;DHT22;44236;48.098;11.582;2022-07-25T09:54:39;29.10;48.20
41644;DHT22;44236;48.098;11.582;2022-07-25T09:57:05;29.10;47.70
41644;DHT22;44236;48.098;11.582;2022-07-25T09:59:32;29.10;47.70
41644;DHT22;44236;48.098;11.582;2022-07-25T10:02:13;29.10;47.50
41644;DHT22;44236;48.098;11.582;2022-07-25T10:07:47;29.10;48.10
41644;DHT22;44236;48.098;11.582;2022-07-25T10:10:37;29.10;48.50
41644;DHT22;44236;48.098;11.582;2022-07-25T10:13:05;29.20;49.50
41644;DHT22;44236;48.098;11.582;2022-07-25T10:15:58;29.20;50.20
41644;DHT22;44236;48.098;11.582;2022-07-25T10:18:25;29.20;50.60
41644;DHT22;44236;48.098;11.582;2022-07-25T10:21:10;29.20;50.70
41644;DHT22;44236;48.098;11.582;2022-07-25T10:23:36;29.20;50.80
41644;DHT22;44236;48.098;11.582;2022-07-25T10:28:37;29.20;50.70
41644;DHT22;44236;48.098;11.582;2022-07-25T10:32:03;29.30;50.70
41644;DHT22;44236;48.098;11.582;2022-07-25T10:34:12;29.30;49.80
41644;DHT22;44236;48.098;11.582;2022-07-25T10:39:11;29.30;49.90
41644;DHT22;44236;48.098;11.582;2022-07-25T10:41:43;29.30;50.00
41644;DHT22;44236;48.098;11.582;2022-07-25T10:44:13;29.30;50.20
41644;DHT22;44236;48.098;11.582;2022-07-25T10:46:39;29.30;50.80
41644;DHT22;44236;48.098;11.582;2022-07-25T10:49:18;29.30;50.00
41644;DHT22;44236;48.098;11.582;2022-07-25T10:51:55;29.30;49.80
41644;DHT22;44236;48.098;11.582;2022-07-25T10:54:21;29.30;49.80
41644;DHT22;44236;48.098;11.582;2022-07-25T10:56:55;29.30;50.30
41644;DHT22;44236;48.098;11.582;2022-07-25T11:01:52;29.30;49.80
41644;DHT22;44236;48.098;11.582;2022-07-25T11:04:18;29.30;49.90
41644;DHT22;44236;48.098;11.582;2022-07-25T11:06:44;29.30;49.90
41644;DHT22;44236;48.098;11.582;2022-07-25T11:09:27;29.30;49.90
41644;DHT22;44236;48.098;11.582;2022-07-25T11:11:56;29.30;50.00
41644;DHT22;44236;48.098;11.582;2022-07-25T11:14:31;29.30;50.00
41644;DHT22;44236;48.098;11.582;2022-07-25T11:17:22;29.30;50.00
41644;DHT22;44236;48.098;11.582;2022-07-25T11:19:59;29.30;50.50
41644;DHT22;44236;48.098;11.582;2022-07-25T11:22:27;29.30;50.60
41644;DHT22;44236;48.098;11.582;2022-07-25T11:24:53;29.30;50.70
41644;DHT22;44236;48.098;11.582;2022-07-25T11:29:48;29.20;50.60
41644;DHT22;44236;48.098;11.582;2022-07-25T11:32:14;29.20;50.50
41644;DHT22;44236;48.098;11.582;2022-07-25T11:34:47;29.20;50.50
41644;DHT22;44236;48.098;11.582;2022-07-25T11:37:13;29.20;50.30
41644;DHT22;44236;48.098;11.582;2022-07-25T11:39:41;29.20;50.10
41644;DHT22;44236;48.098;11.582;2022-07-25T11:42:12;29.20;50.10
41644;DHT22;44236;48.098;11.582;2022-07-25T11:44:42;29.20;50.30
41644;DHT22;44236;48.098;11.582;2022-07-25T11:47:30;29.20;50.40
41644;DHT22;44236;48.098;11.582;2022-07-25T11:49:58;29.20;50.40
41644;DHT22;44236;48.098;11.582;2022-07-25T11:52:34;29.20;50.30
41644;DHT22;44236;48.098;11.582;2022-07-25T11:55:03;29.20;50.70
41644;DHT22;44236;48.098;11.582;2022-07-25T11:57:34;29.20;50.40
41644;DHT22;44236;48.098;11.582;2022-07-25T12:00:03;29.20;50.50
41644;DHT22;44236;48.098;11.582;2022-07-25T12:02:30;29.20;50.70
41644;DHT22;44236;48.098;11.582;2022-07-25T12:10:02;29.20;51.10
41644;DHT22;44236;48.098;11.582;2022-07-25T12:12:28;29.20;51.10
41644;DHT22;44236;48.098;11.582;2022-07-25T12:15:05;29.20;51.10
41644;DHT22;44236;48.098;11.582;2022-07-25T12:17:30;29.10;51.10
41644;DHT22;44236;48.098;11.582;2022-07-25T12:19:56;29.10;51.30
41644;DHT22;44236;48.098;11.582;2022-07-25T12:22:21;29.20;51.60
41644;DHT22;44236;48.098;11.582;2022-07-25T12:24:47;29.20;53.50
41644;DHT22;44236;48.098;11.582;2022-07-25T12:27:13;29.20;53.40
41644;DHT22;44236;48.098;11.582;2022-07-25T12:29:38;29.10;53.30
41644;DHT22;44236;48.098;11.582;2022-07-25T12:32:04;29.10;53.50
41644;DHT22;44236;48.098;11.582;2022-07-25T12:34:30;29.10;53.60
41644;DHT22;44236;48.098;11.582;2022-07-25T12:36:56;29.10;54.10
41644;DHT22;44236;48.098;11.582;2022-07-25T12:39:21;29.10;54.30
41644;DHT22;44236;48.098;11.582;2022-07-25T12:41:47;29.10;54.20
41644;DHT22;44236;48.098;11.582;2022-07-25T12:44:12;29.00;53.90
41644;DHT22;44236;48.098;11.582;2022-07-25T12:46:38;29.10;54.50
41644;DHT22;44236;48.098;11.582;2022-07-25T12:49:05;29.00;53.90
41644;DHT22;44236;48.098;11.582;2022-07-25T12:51:31;29.00;54.00
41644;DHT22;44236;48.098;11.582;2022-07-25T12:53:56;29.00;54.10
41644;DHT22;44236;48.098;11.582;2022-07-25T12:56:22;29.00;54.20
41644;DHT22;44236;48.098;11.582;2022-07-25T12:58:48;29.00;54.40
41644;DHT22;44236;48.098;11.582;2022-07-25T13:01:14;29.00;55.00
41644;DHT22;44236;48.098;11.582;2022-07-25T13:03:40;29.00;55.10
41644;DHT22;44236;48.098;11.582;2022-07-25T13:06:06;29.00;54.40
41644;DHT22;44236;48.098;11.582;2022-07-25T13:08:32;29.00;54.80
41644;DHT22;44236;48.098;11.582;2022-07-25T13:10:57;29.00;54.80
41644;DHT22;44236;48.098;11.582;2022-07-25T13:13:23;29.00;55.00
41644;DHT22;44236;48.098;11.582;2022-07-25T13:15:49;29.00;55.30
41644;DHT22;44236;48.098;11.582;2022-07-25T13:18:15;29.00;55.40
41644;DHT22;44236;48.098;11.582;2022-07-25T13:20:40;29.00;55.40
41644;DHT22;44236;48.098;11.582;2022-07-25T13:23:06;29.00;55.30
41644;DHT22;44236;48.098;11.582;2022-07-25T13:25:32;28.70;55.10
41644;DHT22;44236;48.098;11.582;2022-07-25T13:27:58;28.90;55.30
41644;DHT22;44236;48.098;11.582;2022-07-25T13:30:24;28.90;55.50
41644;DHT22;44236;48.098;11.582;2022-07-25T13:32:50;28.90;55.50
41644;DHT22;44236;48.098;11.582;2022-07-25T13:35:15;28.90;55.30
41644;DHT22;44236;48.098;11.582;2022-07-25T13:37:41;28.90;55.20
41644;DHT22;44236;48.098;11.582;2022-07-25T13:40:07;28.90;55.10
41644;DHT22;44236;48.098;11.582;2022-07-25T13:42:33;28.90;55.00
41644;DHT22;44236;48.098;11.582;2022-07-25T13:44:59;29.00;55.10
41644;DHT22;44236;48.098;11.582;2022-07-25T13:47:25;28.90;55.00
41644;DHT22;44236;48.098;11.582;2022-07-25T13:49:50;28.90;55.10
41644;DHT22;44236;48.098;11.582;2022-07-25T13:52:16;28.90;55.10
41644;DHT22;44236;48.098;11.582;2022-07-25T13:54:42;28.90;55.10
41644;DHT22;44236;48.098;11.582;2022-07-25T13:57:08;28.90;55.20
41644;DHT22;44236;48.098;11.582;2022-07-25T13:59:34;28.90;55.30
41644;DHT22;44236;48.098;11.582;2022-07-25T14:02:00;28.90;55.40
41644;DHT22;44236;48.098;11.582;2022-07-25T14:04:25;28.90;55.40
41644;DHT22;44236;48.098;11.582;2022-07-25T14:06:51;28.90;55.50
41644;DHT22;44236;48.098;11.582;2022-07-25T14:09:18;28.90;55.50
41644;DHT22;44236;48.098;11.582;2022-07-25T14:11:45;28.90;55.60
41644;DHT22;44236;48.098;11.582;2022-07-25T14:14:11;28.90;55.70
41644;DHT22;44236;48.098;11.582;2022-07-25T14:16:36;28.90;55.60
41644;DHT22;44236;48.098;11.582;2022-07-25T14:19:02;28.90;55.60
41644;DHT22;44236;48.098;11.582;2022-07-25T14:21:28;28.90;55.70
41644;DHT22;44236;48.098;11.582;2022-07-25T14:23:54;28.90;55.60
41644;DHT22;44236;48.098;11.582;2022-07-25T14:26:19;28.90;55.60
41644;DHT22;44236;48.098;11.582;2022-07-25T14:28:45;28.90;55.60
41644;DHT22;44236;48.098;11.582;2022-07-25T14:31:11;28.90;55.50
41644;DHT22;44236;48.098;11.582;2022-07-25T14:33:36;28.90;55.50
41644;DHT22;44236;48.098;11.582;2022-07-25T14:36:05;28.90;55.50
41644;DHT22;44236;48.098;11.582;2022-07-25T14:38:31;28.90;55.40
41644;DHT22;44236;48.098;11.582;2022-07-25T14:40:57;28.90;55.40
41644;DHT22;44236;48.098;11.582;2022-07-25T14:43:23;28.90;55.40
41644;DHT22;44236;48.098;11.582;2022-07-25T14:45:49;28.90;55.40
41644;DHT22;44236;48.098;11.582;2022-07-25T14:48:14;28.90;55.40
41644;DHT22;44236;48.098;11.582;2022-07-25T14:50:40;28.90;55.40
41644;DHT22;44236;48.098;11.582;2022-07-25T14:53:05;28.90;55.40
41644;DHT22;44236;48.098;11.582;2022-07-25T14:55:31;28.90;55.30
41644;DHT22;44236;48.098;11.582;2022-07-25T14:57:57;28.90;55.40
41644;DHT22;44236;48.098;11.582;2022-07-25T15:00:27;28.90;55.30
41644;DHT22;44236;48.098;11.582;2022-07-25T15:02:53;28.90;55.30
41644;DHT22;44236;48.098;11.582;2022-07-25T15:05:18;28.90;55.30
41644;DHT22;44236;48.098;11.582;2022-07-25T15:07:44;28.90;55.30
41644;DHT22;44236;48.098;11.582;2022-07-25T15:10:10;28.90;55.20
41644;DHT22;44236;48.098;11.582;2022-07-25T15:12:36;28.90;55.00
41644;DHT22;44236;48.098;11.582;2022-07-25T15:15:02;28.90;55.20
41644;DHT22;44236;48.098;11.582;2022-07-25T15:17:28;28.90;55.40
41644;DHT22;44236;48.098;11.582;2022-07-25T15:19:53;28.90;55.30
41644;DHT22;44236;48.098;11.582;2022-07-25T15:22:19;28.90;55.60
41644;DHT22;44236;48.098;11.582;2022-07-25T15:24:45;28.90;55.80
41644;DHT22;44236;48.098;11.582;2022-07-25T15:27:11;28.90;55.90
41644;DHT22;44236;48.098;11.582;2022-07-25T15:29:36;28.90;56.00
41644;DHT22;44236;48.098;11.582;2022-07-25T15:32:02;28.90;56.00
41644;DHT22;44236;48.098;11.582;2022-07-25T15:34:29;29.00;56.60